createdAt,value
2023-04-26T00:00:48.958Z,101133.03
2023-04-26T00:03:16.781Z,101130.22
2023-04-26T00:05:44.805Z,101126.72
2023-04-26T00:08:12.718Z,101137.22
2023-04-26T00:10:41.774Z,101140.66
2023-04-26T00:13:09.442Z,101138.91
2023-04-26T00:15:37.132Z,101132.00
2023-04-26T00:18:05.164Z,101136.34
2023-04-26T00:20:32.926Z,101132.91
2023-04-26T00:23:00.682Z,101124.75
2023-04-26T00:25:28.363Z,101117.81
2023-04-26T00:29:39.439Z,101122.44
2023-04-26T00:32:07.438Z,101124.94
2023-04-26T00:34:35.932Z,101127.63
2023-04-26T00:37:04.249Z,101119.84
2023-04-26T00:39:32.277Z,101121.56
2023-04-26T00:41:59.996Z,101123.56
2023-04-26T00:44:27.718Z,101126.38
2023-04-26T00:46:56.864Z,101131.72
2023-04-26T00:49:26.354Z,101124.91
2023-04-26T00:51:54.791Z,101122.31
2023-04-26T00:54:22.758Z,101124.75
2023-04-26T00:56:52.134Z,101127.91
2023-04-26T00:59:21.157Z,101120.09
2023-04-26T01:01:49.412Z,101118.38
2023-04-26T01:04:19.250Z,101116.56
2023-04-26T01:06:47.291Z,101124.41
2023-04-26T01:09:15.612Z,101120.03
2023-04-26T01:11:44.444Z,101117.47
2023-04-26T01:14:12.340Z,101117.56
2023-04-26T01:16:40.886Z,101119.09
2023-04-26T01:19:10.893Z,101120.84
2023-04-26T01:21:40.514Z,101126.06
2023-04-26T01:24:10.984Z,101117.09
2023-04-26T01:26:44.117Z,101112.44
2023-04-26T01:29:15.852Z,101123.59
2023-04-26T01:31:43.706Z,101123.03
2023-04-26T01:34:11.863Z,101125.44
2023-04-26T01:36:39.617Z,101125.69
2023-04-26T01:39:09.336Z,101122.44
2023-04-26T01:41:37.005Z,101129.41
2023-04-26T01:44:04.894Z,101134.59
2023-04-26T01:46:32.656Z,101130.72
2023-04-26T01:49:00.477Z,101134.72
2023-04-26T01:51:28.231Z,101123.31
2023-04-26T01:53:55.916Z,101136.91
2023-04-26T01:56:25.432Z,101135.16
2023-04-26T01:58:53.390Z,101137.47
2023-04-26T02:01:21.563Z,101137.50
2023-04-26T02:03:49.635Z,101132.25
2023-04-26T02:06:17.464Z,101132.97
2023-04-26T02:08:45.117Z,101138.25
2023-04-26T02:11:12.803Z,101131.84
2023-04-26T02:13:41.806Z,101132.97
2023-04-26T02:16:09.607Z,101129.84
2023-04-26T02:18:37.270Z,101131.53
2023-04-26T02:21:09.399Z,101137.56
2023-04-26T02:23:37.087Z,101134.09
2023-04-26T02:26:05.187Z,101129.66
2023-04-26T02:28:32.929Z,101137.28
2023-04-26T02:31:03.328Z,101139.56
2023-04-26T02:33:31.341Z,101137.56
2023-04-26T02:35:59.097Z,101136.63
2023-04-26T02:38:27.336Z,101132.63
2023-04-26T02:40:59.636Z,101130.56
2023-04-26T02:43:27.331Z,101126.25
2023-04-26T02:45:55.033Z,101122.41
2023-04-26T02:48:24.068Z,101119.91
2023-04-26T02:50:52.354Z,101121.78
2023-04-26T02:53:20.160Z,101121.81
2023-04-26T02:55:47.914Z,101117.09
2023-04-26T02:58:15.616Z,101116.16
2023-04-26T03:00:47.210Z,101114.50
2023-04-26T03:03:15.159Z,101112.94
2023-04-26T03:05:44.430Z,101112.09
2023-04-26T03:08:12.081Z,101118.56
2023-04-26T03:10:39.686Z,101116.16
2023-04-26T03:13:07.310Z,101118.81
2023-04-26T03:15:35.038Z,101110.09
2023-04-26T03:18:02.826Z,101108.44
2023-04-26T03:20:30.554Z,101115.38
2023-04-26T03:22:59.592Z,101103.44
2023-04-26T03:25:27.360Z,101104.63
2023-04-26T03:27:55.407Z,101118.28
2023-04-26T03:30:23.142Z,101111.25
2023-04-26T03:32:50.900Z,101114.72
2023-04-26T03:35:18.607Z,101112.19
2023-04-26T03:37:46.275Z,101109.78
2023-04-26T03:40:17.060Z,101108.06
2023-04-26T03:42:44.767Z,101115.16
2023-04-26T03:45:12.717Z,101106.41
2023-04-26T03:47:40.363Z,101097.28
2023-04-26T03:50:09.676Z,101107.59
2023-04-26T03:52:37.405Z,101115.19
2023-04-26T03:55:05.561Z,101108.16
2023-04-26T03:57:34.622Z,101098.50
2023-04-26T04:00:02.324Z,101107.88
2023-04-26T04:02:30.077Z,101114.78
2023-04-26T04:04:57.951Z,101116.31
2023-04-26T04:07:25.760Z,101122.19
2023-04-26T04:09:53.468Z,101125.56
2023-04-26T04:12:22.951Z,101122.84
2023-04-26T04:14:52.480Z,101109.94
2023-04-26T04:17:20.266Z,101112.69
2023-04-26T04:19:47.937Z,101116.34
2023-04-26T04:22:15.650Z,101117.13
2023-04-26T04:24:44.222Z,101121.44
2023-04-26T04:27:11.939Z,101116.28
2023-04-26T04:29:40.964Z,101129.25
2023-04-26T04:32:10.153Z,101127.06
2023-04-26T04:34:37.963Z,101126.91
2023-04-26T04:37:05.691Z,101131.66
2023-04-26T04:39:33.349Z,101131.78
2023-04-26T04:42:01.113Z,101132.38
2023-04-26T04:44:28.766Z,101127.19
2023-04-26T04:46:56.792Z,101130.28
2023-04-26T04:49:26.005Z,101127.88
2023-04-26T04:51:53.662Z,101134.03
2023-04-26T04:54:21.427Z,101129.53
2023-04-26T04:56:49.158Z,101137.78
2023-04-26T04:59:16.893Z,101138.13
2023-04-26T05:01:45.379Z,101135.63
2023-04-26T05:04:13.703Z,101142.56
2023-04-26T05:06:42.826Z,101139.53
2023-04-26T05:09:11.463Z,101145.16
2023-04-26T05:11:39.239Z,101139.19
2023-04-26T05:14:07.154Z,101152.31
2023-04-26T05:16:34.866Z,101154.06
2023-04-26T05:19:02.751Z,101151.81
2023-04-26T05:21:31.592Z,101149.88
2023-04-26T05:24:00.638Z,101155.41
2023-04-26T05:26:28.408Z,101164.31
2023-04-26T05:28:56.199Z,101159.25
2023-04-26T05:31:24.470Z,101155.66
2023-04-26T05:33:52.453Z,101161.38
2023-04-26T05:36:21.287Z,101159.75
2023-04-26T05:38:49.268Z,101156.31
2023-04-26T05:41:18.412Z,101150.66
2023-04-26T05:43:47.096Z,101148.09
2023-04-26T05:46:14.860Z,101154.69
2023-04-26T05:48:42.696Z,101170.44
2023-04-26T05:51:10.467Z,101180.50
2023-04-26T05:53:38.168Z,101186.41
2023-04-26T05:56:07.025Z,101198.31
2023-04-26T05:58:36.158Z,101182.19
2023-04-26T06:01:03.906Z,101172.28
2023-04-26T06:03:31.810Z,101178.66
2023-04-26T06:06:00.557Z,101182.50
2023-04-26T06:08:28.801Z,101175.97
2023-04-26T06:10:56.620Z,101181.50
2023-04-26T06:13:24.387Z,101192.16
2023-04-26T06:15:54.429Z,101192.53
2023-04-26T06:18:22.156Z,101183.19
2023-04-26T06:20:49.926Z,101190.81
2023-04-26T06:23:20.199Z,101199.88
2023-04-26T06:25:48.129Z,101207.97
2023-04-26T06:28:15.855Z,101198.91
2023-04-26T06:30:43.994Z,101196.03
2023-04-26T06:33:13.105Z,101192.13
2023-04-26T06:35:41.399Z,101182.25
2023-04-26T06:38:09.438Z,101186.19
2023-04-26T06:40:37.905Z,101192.09
2023-04-26T06:45:33.664Z,101185.53
2023-04-26T06:48:03.006Z,101175.97
2023-04-26T06:50:32.199Z,101173.53
2023-04-26T06:52:59.894Z,101183.00
2023-04-26T06:55:27.664Z,101165.41
2023-04-26T06:57:55.478Z,101172.03
2023-04-26T07:00:23.775Z,101152.66
2023-04-26T07:02:51.645Z,101163.41
2023-04-26T07:05:19.631Z,101168.81
2023-04-26T07:07:50.093Z,101170.00
2023-04-26T07:10:18.332Z,101173.75
2023-04-26T07:12:46.001Z,101176.69
2023-04-26T07:15:13.789Z,101178.41
2023-04-26T07:17:41.519Z,101172.09
2023-04-26T07:20:10.421Z,101178.94
2023-04-26T07:22:38.137Z,101171.31
2023-04-26T07:25:07.817Z,101185.56
2023-04-26T07:27:35.575Z,101168.88
2023-04-26T07:30:03.409Z,101185.06
2023-04-26T07:32:31.128Z,101186.97
2023-04-26T07:34:58.952Z,101201.81
2023-04-26T07:37:26.648Z,101191.69
2023-04-26T07:39:54.295Z,101185.13
2023-04-26T07:42:23.377Z,101180.22
2023-04-26T07:44:51.172Z,101188.41
2023-04-26T07:47:18.889Z,101177.56
2023-04-26T07:49:47.761Z,101177.38
2023-04-26T07:52:15.696Z,101174.72
2023-04-26T07:54:43.408Z,101181.56
2023-04-26T07:57:11.272Z,101178.94
2023-04-26T07:59:40.354Z,101187.50
2023-04-26T08:02:08.210Z,101178.63
2023-04-26T08:04:36.682Z,101188.00
2023-04-26T08:07:04.484Z,101188.09
2023-04-26T08:09:32.285Z,101187.03
2023-04-26T08:12:00.128Z,101184.53
2023-04-26T08:14:28.824Z,101194.34
2023-04-26T08:16:57.949Z,101199.22
2023-04-26T08:19:26.877Z,101216.78
2023-04-26T08:21:54.609Z,101198.41
2023-04-26T08:24:22.562Z,101221.19
2023-04-26T08:26:50.236Z,101208.44
2023-04-26T08:29:18.739Z,101198.16
2023-04-26T08:31:46.522Z,101191.81
2023-04-26T08:34:15.601Z,101209.63
2023-04-26T08:36:43.343Z,101209.06
2023-04-26T08:39:12.270Z,101204.78
2023-04-26T08:41:44.287Z,101218.00
2023-04-26T08:44:12.281Z,101220.69
2023-04-26T08:46:44.700Z,101212.94
2023-04-26T08:49:18.497Z,101211.34
2023-04-26T08:51:46.762Z,101232.81
2023-04-26T08:54:17.585Z,101220.47
2023-04-26T08:56:45.706Z,101231.66
2023-04-26T08:59:15.146Z,101220.75
2023-04-26T09:01:45.024Z,101222.66
2023-04-26T09:04:13.543Z,101234.50
2023-04-26T09:06:43.015Z,101239.84
2023-04-26T09:09:12.530Z,101216.66
2023-04-26T09:11:56.680Z,101220.06
2023-04-26T09:14:24.696Z,101235.53
2023-04-26T09:16:53.168Z,101242.09
2023-04-26T09:19:36.064Z,101221.88
2023-04-26T09:22:06.327Z,101234.50
2023-04-26T09:24:50.733Z,101226.53
2023-04-26T09:27:18.469Z,101229.19
2023-04-26T09:29:59.785Z,101218.59
2023-04-26T09:32:29.168Z,101230.28
2023-04-26T09:34:56.925Z,101225.03
2023-04-26T09:37:26.082Z,101228.50
2023-04-26T09:39:53.794Z,101224.50
2023-04-26T09:42:21.522Z,101222.03
2023-04-26T09:44:49.262Z,101206.69
2023-04-26T09:47:16.903Z,101214.34
2023-04-26T09:49:48.592Z,101209.56
2023-04-26T09:52:16.484Z,101204.16
2023-04-26T09:54:49.781Z,101197.06
2023-04-26T09:57:19.608Z,101209.25
2023-04-26T09:59:48.809Z,101202.47
2023-04-26T10:02:19.474Z,101197.78
2023-04-26T10:04:49.504Z,101198.13
2023-04-26T10:07:19.216Z,101193.81
2023-04-26T10:09:48.696Z,101198.38
2023-04-26T10:12:17.777Z,101196.59
2023-04-26T10:14:46.875Z,101200.88
2023-04-26T10:17:15.035Z,101192.69
2023-04-26T10:19:45.037Z,101187.84
2023-04-26T10:22:16.639Z,101206.06
2023-04-26T10:24:45.777Z,101205.78
2023-04-26T10:27:15.052Z,101204.00
2023-04-26T10:30:12.175Z,101203.63
2023-04-26T10:33:16.285Z,101196.88
2023-04-26T10:36:05.736Z,101159.19
2023-04-26T10:38:34.175Z,101190.69
2023-04-26T10:41:30.943Z,101196.41
2023-04-26T10:44:01.575Z,101191.38
2023-04-26T10:46:40.260Z,101172.16
2023-04-26T10:49:18.480Z,101181.88
2023-04-26T10:52:12.633Z,101171.44
2023-04-26T10:54:48.098Z,101187.47
2023-04-26T10:57:15.967Z,101186.69
2023-04-26T11:00:20.880Z,101181.34
2023-04-26T11:02:58.771Z,101189.69
2023-04-26T11:05:43.574Z,101183.19
2023-04-26T11:08:17.556Z,101181.59
2023-04-26T11:10:47.475Z,101149.47
2023-04-26T11:13:15.269Z,101159.28
2023-04-26T11:15:44.501Z,101173.91
2023-04-26T11:18:12.259Z,101174.56
2023-04-26T11:20:40.116Z,101171.88
2023-04-26T11:23:08.975Z,101172.06
2023-04-26T11:25:36.844Z,101167.97
2023-04-26T11:28:04.832Z,101189.16
2023-04-26T11:30:32.912Z,101174.34
2023-04-26T11:33:02.804Z,101169.88
2023-04-26T11:35:30.945Z,101182.72
2023-04-26T11:38:01.832Z,101172.66
2023-04-26T11:40:30.875Z,101170.59
2023-04-26T11:43:01.745Z,101164.66
2023-04-26T11:45:29.566Z,101175.59
2023-04-26T11:47:58.202Z,101180.16
2023-04-26T11:50:28.245Z,101174.81
2023-04-26T11:52:56.903Z,101175.06
2023-04-26T11:55:29.444Z,101187.44
2023-04-26T11:57:57.849Z,101168.56
2023-04-26T12:00:26.788Z,101161.53
2023-04-26T12:02:55.783Z,101172.31
2023-04-26T12:05:30.614Z,101169.84
2023-04-26T12:08:00.668Z,101163.19
2023-04-26T12:10:29.544Z,101138.06
2023-04-26T12:13:00.217Z,101166.53
2023-04-26T12:15:31.762Z,101165.66
2023-04-26T12:18:01.454Z,101173.00
2023-04-26T12:20:32.377Z,101162.88
2023-04-26T12:23:04.680Z,101152.38
2023-04-26T12:25:33.224Z,101173.19
2023-04-26T12:28:01.657Z,101170.44
2023-04-26T12:30:31.362Z,101176.63
2023-04-26T12:33:09.256Z,101172.50
2023-04-26T12:35:44.642Z,101173.69
2023-04-26T12:38:13.336Z,101166.72
2023-04-26T12:40:41.737Z,101175.78
2023-04-26T12:43:09.693Z,101166.69
2023-04-26T12:45:37.471Z,101169.31
2023-04-26T12:48:06.373Z,101168.91
2023-04-26T12:50:34.308Z,101183.88
2023-04-26T12:53:03.430Z,101161.41
2023-04-26T12:55:32.557Z,101163.72
2023-04-26T12:58:01.073Z,101172.00
2023-04-26T13:00:28.817Z,101192.66
2023-04-26T13:02:56.762Z,101183.47
2023-04-26T13:05:25.425Z,101178.91
2023-04-26T13:07:53.113Z,101189.13
2023-04-26T13:10:22.185Z,101185.78
2023-04-26T13:12:49.889Z,101173.59
2023-04-26T13:15:18.047Z,101173.56
2023-04-26T13:17:45.952Z,101179.00
2023-04-26T13:20:14.370Z,101171.19
2023-04-26T13:22:43.247Z,101179.06
2023-04-26T13:25:13.104Z,101174.59
2023-04-26T13:27:42.252Z,101189.13
2023-04-26T13:30:11.178Z,101171.66
2023-04-26T13:32:38.920Z,101174.16
2023-04-26T13:35:07.486Z,101186.63
2023-04-26T13:37:35.530Z,101191.16
2023-04-26T13:40:04.338Z,101185.19
2023-04-26T13:42:32.512Z,101187.28
2023-04-26T13:45:06.106Z,101178.09
2023-04-26T13:47:33.800Z,101192.81
2023-04-26T13:50:01.538Z,101189.63
2023-04-26T13:52:29.270Z,101196.78
2023-04-26T13:54:56.956Z,101193.09
2023-04-26T13:57:24.682Z,101184.88
2023-04-26T13:59:52.410Z,101190.31
2023-04-26T14:02:22.173Z,101189.59
2023-04-26T14:04:50.430Z,101191.03
2023-04-26T14:07:18.149Z,101189.59
2023-04-26T14:09:45.840Z,101175.34
2023-04-26T14:12:13.559Z,101174.13
2023-04-26T14:14:41.282Z,101201.66
2023-04-26T14:17:09.016Z,101190.50
2023-04-26T14:19:38.111Z,101189.63
2023-04-26T14:22:05.916Z,101191.59
2023-04-26T14:24:33.591Z,101193.13
2023-04-26T14:27:03.192Z,101179.50
2023-04-26T14:29:31.036Z,101197.75
2023-04-26T14:31:58.810Z,101183.28
2023-04-26T14:34:27.135Z,101206.97
2023-04-26T14:37:00.927Z,101205.94
2023-04-26T14:39:28.621Z,101209.72
2023-04-26T14:41:56.928Z,101188.88
2023-04-26T14:44:24.631Z,101191.81
2023-04-26T14:46:52.593Z,101182.56
2023-04-26T14:49:20.708Z,101194.25
2023-04-26T14:51:49.406Z,101198.22
2023-04-26T14:54:19.257Z,101195.66
2023-04-26T14:56:46.915Z,101185.69
2023-04-26T14:59:14.675Z,101197.97
2023-04-26T15:02:36.862Z,101197.56
2023-04-26T15:05:06.072Z,101189.88
2023-04-26T15:07:33.905Z,101206.19
2023-04-26T15:10:01.948Z,101177.56
2023-04-26T15:12:29.692Z,101173.84
2023-04-26T15:14:57.442Z,101168.53
2023-04-26T15:17:25.240Z,101183.69
2023-04-26T15:19:54.550Z,101183.84
2023-04-26T15:22:22.290Z,101186.13
2023-04-26T15:24:51.051Z,101198.28
2023-04-26T15:27:18.879Z,101178.50
2023-04-26T15:29:46.597Z,101191.13
2023-04-26T15:32:14.376Z,101189.47
2023-04-26T15:34:45.133Z,101184.34
2023-04-26T15:37:14.281Z,101183.69
2023-04-26T15:39:41.978Z,101171.59
2023-04-26T15:42:09.951Z,101185.13
2023-04-26T15:44:37.841Z,101176.28
2023-04-26T15:47:05.912Z,101179.78
2023-04-26T15:49:33.730Z,101195.56
2023-04-26T15:52:01.443Z,101183.75
2023-04-26T15:54:30.467Z,101180.72
2023-04-26T15:56:58.247Z,101186.97
2023-04-26T15:59:26.383Z,101190.19
2023-04-26T16:01:54.217Z,101203.81
2023-04-26T16:04:22.580Z,101205.53
2023-04-26T16:06:50.418Z,101199.56
2023-04-26T16:11:52.313Z,101189.25
2023-04-26T16:14:20.064Z,101189.84
2023-04-26T16:16:47.782Z,101202.59
2023-04-26T16:19:16.390Z,101199.66
2023-04-26T16:21:44.151Z,101197.34
2023-04-26T16:24:12.346Z,101199.50
2023-04-26T16:26:40.081Z,101186.44
2023-04-26T16:29:09.716Z,101179.56
2023-04-26T16:31:37.457Z,101187.84
2023-04-26T16:34:05.146Z,101182.41
2023-04-26T16:36:32.985Z,101204.06
2023-04-26T16:39:00.772Z,101196.16
2023-04-26T16:41:28.604Z,101193.25
2023-04-26T16:43:56.322Z,101194.53
2023-04-26T16:46:25.409Z,101195.53
2023-04-26T16:48:53.174Z,101193.53
2023-04-26T16:51:20.863Z,101190.50
2023-04-26T16:53:48.568Z,101189.34
2023-04-26T16:56:16.363Z,101194.25
2023-04-26T16:58:44.174Z,101199.16
2023-04-26T17:01:12.072Z,101205.63
2023-04-26T17:03:41.440Z,101206.22
2023-04-26T17:06:11.139Z,101206.69
2023-04-26T17:08:38.988Z,101215.97
2023-04-26T17:11:06.693Z,101217.38
2023-04-26T17:13:35.086Z,101203.28
2023-04-26T17:16:02.826Z,101210.25
2023-04-26T17:18:30.694Z,101216.97
2023-04-26T17:20:59.824Z,101215.28
2023-04-26T17:23:27.590Z,101215.44
2023-04-26T17:25:55.533Z,101212.88
2023-04-26T17:28:23.268Z,101207.09
2023-04-26T17:30:51.054Z,101213.59
2023-04-26T17:33:19.158Z,101220.94
2023-04-26T17:35:47.388Z,101223.75
2023-04-26T17:38:16.425Z,101208.34
2023-04-26T17:40:44.128Z,101229.34
2023-04-26T17:43:11.940Z,101215.94
2023-04-26T17:45:39.626Z,101225.28
2023-04-26T17:48:11.045Z,101209.75
2023-04-26T17:50:38.859Z,101224.47
2023-04-26T17:53:07.176Z,101221.06
2023-04-26T17:55:36.500Z,101218.97
2023-04-26T17:58:04.447Z,101218.50
2023-04-26T18:00:32.258Z,101216.72
2023-04-26T18:03:02.957Z,101208.16
2023-04-26T18:05:30.803Z,101227.44
2023-04-26T18:07:58.873Z,101219.69
2023-04-26T18:10:26.699Z,101213.63
2023-04-26T18:12:55.811Z,101228.38
2023-04-26T18:15:23.876Z,101224.75
2023-04-26T18:17:51.661Z,101230.72
2023-04-26T18:20:19.394Z,101231.66
2023-04-26T18:22:47.123Z,101230.44
2023-04-26T18:25:15.503Z,101234.25
2023-04-26T18:27:43.313Z,101231.09
2023-04-26T18:30:13.754Z,101229.47
2023-04-26T18:32:41.578Z,101232.31
2023-04-26T18:35:09.934Z,101235.53
2023-04-26T18:37:37.950Z,101229.66
2023-04-26T18:40:07.401Z,101229.88
2023-04-26T18:42:35.129Z,101234.81
2023-04-26T18:45:03.119Z,101227.41
2023-04-26T18:47:32.199Z,101230.28
2023-04-26T18:50:00.015Z,101235.63
2023-04-26T18:52:27.754Z,101240.56
2023-04-26T18:54:55.401Z,101243.81
2023-04-26T18:57:23.217Z,101254.72
2023-04-26T18:59:50.965Z,101246.38
2023-04-26T19:02:18.772Z,101244.59
2023-04-26T19:04:50.459Z,101256.00
2023-04-26T19:07:18.523Z,101252.88
2023-04-26T19:09:54.351Z,101262.78
2023-04-26T19:12:22.597Z,101253.34
2023-04-26T19:14:50.349Z,101265.03
2023-04-26T19:17:17.995Z,101268.88
2023-04-26T19:19:47.044Z,101261.03
2023-04-26T19:22:14.908Z,101269.75
2023-04-26T19:24:42.723Z,101279.03
2023-04-26T19:27:11.347Z,101285.09
2023-04-26T19:29:39.112Z,101275.13
2023-04-26T19:32:07.072Z,101277.06
2023-04-26T19:34:34.988Z,101278.41
2023-04-26T19:37:04.169Z,101283.31
2023-04-26T19:39:31.906Z,101271.25
2023-04-26T19:42:01.287Z,101276.66
2023-04-26T19:44:29.024Z,101275.63
2023-04-26T19:46:56.831Z,101278.03
2023-04-26T19:49:25.414Z,101275.06
2023-04-26T19:51:54.357Z,101277.56
2023-04-26T19:54:23.661Z,101285.41
2023-04-26T19:56:51.562Z,101282.97
2023-04-26T19:59:19.328Z,101283.84
2023-04-26T20:01:47.103Z,101287.22
2023-04-26T20:04:15.064Z,101287.63
2023-04-26T20:06:42.896Z,101291.88
2023-04-26T20:09:10.844Z,101287.81
2023-04-26T20:11:40.135Z,101300.53
2023-04-26T20:14:07.847Z,101287.88
2023-04-26T20:16:35.620Z,101288.06
2023-04-26T20:19:03.423Z,101319.31
2023-04-26T20:21:31.214Z,101311.03
2023-04-26T20:23:58.964Z,101307.03
2023-04-26T20:26:26.751Z,101302.19
2023-04-26T20:28:55.907Z,101308.19
2023-04-26T20:31:23.723Z,101312.22
2023-04-26T20:33:51.486Z,101313.00
2023-04-26T20:36:19.795Z,101312.66
2023-04-26T20:38:47.599Z,101308.06
2023-04-26T20:41:15.405Z,101324.06
2023-04-26T20:43:43.099Z,101312.66
2023-04-26T20:46:12.277Z,101323.72
2023-04-26T20:48:39.977Z,101326.63
2023-04-26T20:51:07.648Z,101314.03
2023-04-26T20:53:35.367Z,101320.81
2023-04-26T20:56:03.548Z,101309.75
2023-04-26T20:58:31.372Z,101322.84
2023-04-26T21:00:59.561Z,101322.75
2023-04-26T21:03:29.265Z,101320.59
2023-04-26T21:05:57.204Z,101310.47
2023-04-26T21:08:24.944Z,101309.66
2023-04-26T21:10:52.694Z,101318.06
2023-04-26T21:13:20.443Z,101317.03
2023-04-26T21:15:48.275Z,101314.81
2023-04-26T21:18:16.037Z,101316.66
2023-04-26T21:20:45.015Z,101316.69
2023-04-26T21:23:12.770Z,101321.16
2023-04-26T21:25:45.502Z,101321.97
2023-04-26T21:28:13.315Z,101317.69
2023-04-26T21:30:41.033Z,101314.28
2023-04-26T21:33:09.142Z,101322.31
2023-04-26T21:35:36.859Z,101326.84
2023-04-26T21:38:05.925Z,101313.06
2023-04-26T21:40:33.694Z,101322.03
2023-04-26T21:43:05.281Z,101324.66
2023-04-26T21:45:33.558Z,101321.34
2023-04-26T21:48:01.360Z,101324.16
2023-04-26T21:50:29.118Z,101322.50
2023-04-26T21:52:56.829Z,101326.25
2023-04-26T21:55:26.897Z,101320.06
2023-04-26T21:57:54.684Z,101328.69
2023-04-26T22:00:22.585Z,101326.09
2023-04-26T22:02:51.354Z,101327.94
2023-04-26T22:05:19.224Z,101330.56
2023-04-26T22:07:46.846Z,101328.06
2023-04-26T22:10:16.316Z,101329.94
2023-04-26T22:12:45.838Z,101330.00
2023-04-26T22:15:13.538Z,101326.66
2023-04-26T22:17:41.360Z,101329.38
2023-04-26T22:20:10.297Z,101329.47
2023-04-26T22:22:38.029Z,101331.31
2023-04-26T22:27:08.995Z,101337.59
2023-04-26T22:29:36.692Z,101337.63
2023-04-26T22:32:04.595Z,101342.78
2023-04-26T22:34:32.361Z,101336.75
2023-04-26T22:37:12.973Z,101340.38
2023-04-26T22:39:45.393Z,101339.63
2023-04-26T22:42:14.495Z,101344.03
2023-04-26T22:45:05.290Z,101348.50
2023-04-26T22:47:33.019Z,101339.97
2023-04-26T22:50:00.825Z,101341.75
2023-04-26T22:52:31.837Z,101352.22
2023-04-26T22:55:00.937Z,101345.31
2023-04-26T22:57:28.977Z,101348.78
2023-04-26T22:59:56.632Z,101344.50
2023-04-26T23:02:26.050Z,101352.34
2023-04-26T23:04:53.913Z,101345.47
2023-04-26T23:07:21.641Z,101346.31
2023-04-26T23:09:49.345Z,101349.94
2023-04-26T23:12:19.217Z,101347.44
2023-04-26T23:14:47.773Z,101350.13
2023-04-26T23:17:15.551Z,101350.16
2023-04-26T23:19:44.566Z,101347.66
2023-04-26T23:22:12.310Z,101352.00
2023-04-26T23:24:40.039Z,101353.78
2023-04-26T23:27:07.825Z,101358.38
2023-04-26T23:29:35.636Z,101361.81
2023-04-26T23:32:03.338Z,101366.22
2023-04-26T23:34:31.268Z,101363.72
2023-04-26T23:37:07.329Z,101363.78
2023-04-26T23:39:36.348Z,101371.72
2023-04-26T23:42:04.300Z,101365.72
2023-04-26T23:44:32.249Z,101372.78
2023-04-26T23:47:00.060Z,101371.06
2023-04-26T23:49:27.808Z,101365.94
2023-04-26T23:51:55.578Z,101372.09
2023-04-26T23:54:24.685Z,101374.75
2023-04-26T23:56:52.421Z,101377.44
2023-04-26T23:59:20.125Z,101378.38
